Portada
METAR-TAF:

METAR-TAF

Aeropuertos :

Aeropuerto de Orán Es Sénia

Orán, Argelia

latitud: 35-38N, longitud: 000-36W, altitud: 90 m

Observación

El informe se hizo hace 23 minutos, a las 10:30 UTC
Viento 12 kt del sur-suroeste, variando entre sur y oeste-suroeste
Temperatura 24°C
Humedad 50%
Presión 1012 hPa
Visibilidad 10 km o más
Nubes dispersas a una altura de 2000 ft
Cielo nuboso a una altura de 23300 ft

METAR: DAOO 181030Z 21012KT 180V240 9999 SCT020 BKN233 24/13 Q1012

Hora: 11:53 (10:53 UTC)

Pronóstico

El informe se hizo hace 5 horas y 53 minutos, a las 05:00 UTC
Pronóstico válido del 18 a las 06 UTC al 19 a las 06 UTC
Viento 12 kt del sur-suroeste
Visibilidad 10 km o más
sin nubes por debajo de 1500 m y sin presencia de cumulonimbus.

TAF: DAOO 180500Z 1806/1906 21012KT CAVOK

Observaciones y pronósticos meteorológicos de más de 4000 aeropuertos (mensajes METAR y TAF).

Los puntos amarillos y rojos representan las estaciones disponibles.

Ponga el ratón en el punto deseado para ver el nombre de la estación.

Haga clic para ver las observaciones y los pronósticos meteorológicos.

Para cambiar el mapa : haga clic en los botones verdes con una cruz de color negro para hacer un zoom, en el botón verde con un guión para alejar o en las flechas verdes para mapas adyacentes.


METAR-TAF: